Time;durP1;ratioP1;P1;durP2;ratioP2;P2;SDS_P1;SDS_P2;PMS_P1;PMS_P2;Temp;Humidity;BMP_temperature;BMP_pressure;BME280_temperature;BME280_humidity;BME280_pressure;Samples;Min_cycle;Max_cycle;Signal;HPM_P1;HPM_P2
2021/12/18 00:00:36;;;;;;;8.10;5.25;;;;;;;1.29;57.66;94134.25;4943797;28;20047;-74
2021/12/18 00:03:02;;;;;;;8.68;5.32;;;;;;;1.22;57.53;94131.06;4958623;28;20030;-74
2021/12/18 00:05:27;;;;;;;13.35;6.80;;;;;;;1.09;58.46;94144.50;4960225;28;20486;-75
2021/12/18 00:07:53;;;;;;;10.27;6.32;;;;;;;0.82;58.63;94113.06;4957021;28;20046;-73
2021/12/18 00:10:21;;;;;;;8.52;6.05;;;;;;;0.90;59.11;94144.06;4963748;28;20030;-73
2021/12/18 00:12:49;;;;;;;10.40;6.90;;;;;;;0.90;59.30;94143.25;4960587;28;20042;-77
2021/12/18 00:15:16;;;;;;;9.60;6.85;;;;;;;0.75;59.71;94134.19;4960926;28;20043;-75
2021/12/18 00:17:42;;;;;;;7.40;5.25;;;;;;;0.79;60.17;94145.75;4961402;28;20146;-75
2021/12/18 00:20:08;;;;;;;11.35;5.95;;;;;;;0.80;59.51;94139.50;4958406;28;20042;-76
2021/12/18 00:22:33;;;;;;;8.38;5.65;;;;;;;0.95;59.61;94141.50;4960730;28;20500;-76
2021/12/18 00:24:59;;;;;;;12.05;6.53;;;;;;;1.01;59.17;94144.97;4961834;28;20061;-76
2021/12/18 00:27:24;;;;;;;11.05;5.85;;;;;;;0.99;58.83;94142.56;4960771;28;20043;-75
2021/12/18 00:29:49;;;;;;;12.05;6.30;;;;;;;0.82;58.76;94127.97;4961711;28;20417;-76
2021/12/18 00:32:15;;;;;;;10.38;6.60;;;;;;;0.68;58.90;94130.97;4958798;28;20132;-77
2021/12/18 00:34:40;;;;;;;8.43;5.72;;;;;;;0.89;59.08;94139.84;4961631;28;20185;-76
2021/12/18 00:37:06;;;;;;;9.48;5.93;;;;;;;1.02;58.78;94133.44;4961895;28;20031;-76
2021/12/18 00:39:34;;;;;;;15.52;7.10;;;;;;;1.21;57.82;94147.81;4959548;28;20337;-76
2021/12/18 00:42:08;;;;;;;12.00;5.80;;;;;;;0.89;57.88;94086.69;4945020;28;20355;-75
2021/12/18 00:44:33;;;;;;;9.90;6.28;;;;;;;1.18;57.31;94138.59;4961201;28;20416;-75
2021/12/18 00:46:58;;;;;;;10.43;6.18;;;;;;;1.04;57.66;94145.25;4961428;28;20043;-76
2021/12/18 00:49:24;;;;;;;12.52;6.20;;;;;;;0.93;58.15;94140.16;4960894;28;20413;-74
2021/12/18 00:51:50;;;;;;;9.30;6.22;;;;;;;1.00;57.94;94127.66;4957961;28;20039;-74
2021/12/18 00:54:15;;;;;;;12.27;6.78;;;;;;;1.07;57.75;94146.59;4940376;28;20035;-74
2021/12/18 00:56:41;;;;;;;8.60;5.40;;;;;;;1.11;56.99;94140.63;4961974;28;20494;-76
2021/12/18 00:59:06;;;;;;;8.18;5.80;;;;;;;1.01;57.08;94143.13;4957976;28;20038;-76
2021/12/18 01:01:33;;;;;;;9.18;5.95;;;;;;;0.90;57.11;94138.03;4959842;28;20375;-76
2021/12/18 01:03:59;;;;;;;10.98;5.70;;;;;;;0.72;57.56;94129.47;4959967;28;20126;-74
2021/12/18 01:06:25;;;;;;;8.25;4.63;;;;;;;0.78;57.81;94144.19;4958331;28;20066;-76
2021/12/18 01:08:54;;;;;;;9.68;5.70;;;;;;;0.67;57.82;94132.00;4956517;28;20098;-75
2021/12/18 01:11:35;;;;;;;6.60;4.43;;;;;;;0.50;58.09;94141.72;4958610;28;20038;-76
2021/12/18 01:24:59;;;;;;;9.38;5.60;;;;;;;0.68;58.01;94145.91;4959485;28;20046;-76
2021/12/18 01:27:25;;;;;;;10.05;5.43;;;;;;;0.62;58.51;94145.03;4962068;28;20038;-76
2021/12/18 01:29:50;;;;;;;14.45;6.63;;;;;;;0.68;58.52;94132.81;4961288;28;20069;-75
2021/12/18 01:32:16;;;;;;;8.35;5.57;;;;;;;0.93;57.71;94140.97;4960683;28;20038;-75
2021/12/18 01:34:41;;;;;;;10.73;5.68;;;;;;;0.92;57.66;94135.97;4957933;28;20469;-73
2021/12/18 01:37:07;;;;;;;11.23;5.55;;;;;;;1.12;56.98;94138.81;4960784;28;20062;-76
2021/12/18 01:39:33;;;;;;;6.25;4.95;;;;;;;1.00;56.97;94140.75;4960264;28;20516;-75
2021/12/18 01:52:41;;;;;;;9.47;6.27;;;;;;;1.09;56.82;94097.38;4958832;28;20082;-76
2021/12/18 01:55:08;;;;;;;9.32;5.63;;;;;;;1.34;56.26;94126.44;4956616;28;20018;-76
2021/12/18 01:57:33;;;;;;;8.57;5.63;;;;;;;0.84;56.18;94045.53;4956527;28;20518;-76
2021/12/18 01:59:59;;;;;;;7.43;4.63;;;;;;;1.48;55.85;94121.56;4957564;28;20043;-76
2021/12/18 02:02:25;;;;;;;7.22;5.65;;;;;;;1.46;56.03;94128.91;4955980;28;20093;-76
2021/12/18 02:04:50;;;;;;;7.95;5.57;;;;;;;1.40;56.36;94133.31;4958641;28;20125;-74
2021/12/18 02:07:17;;;;;;;11.82;5.22;;;;;;;1.17;56.53;94105.59;4955012;28;20030;-76
2021/12/18 02:12:18;;;;;;;13.13;5.93;;;;;;;1.17;56.90;94131.00;4952985;28;21103;-74
2021/12/18 02:20:26;;;;;;;10.30;5.65;;;;;;;1.19;56.53;94110.56;4956493;28;20400;-75
2021/12/18 02:22:56;;;;;;;10.50;6.40;;;;;;;1.07;56.70;94115.19;4955354;28;20015;-74
2021/12/18 02:25:24;;;;;;;8.13;5.25;;;;;;;0.91;57.13;94121.28;4959796;28;20031;-74
2021/12/18 02:27:51;;;;;;;14.52;5.32;;;;;;;1.07;57.05;94115.19;4952076;28;20129;-76
2021/12/18 02:30:21;;;;;;;8.32;4.53;;;;;;;1.13;56.76;94104.47;4943610;28;20057;-75
2021/12/18 02:32:47;;;;;;;8.55;4.95;;;;;;;1.38;56.42;94132.75;4959885;28;20074;-76
2021/12/18 02:35:28;;;;;;;7.78;4.80;;;;;;;1.20;56.71;94105.09;4958143;28;20055;-76
2021/12/18 02:38:18;;;;;;;7.57;4.20;;;;;;;1.21;56.11;94098.81;4943275;28;20050;-75
2021/12/18 02:41:10;;;;;;;8.65;5.70;;;;;;;1.20;56.40;94083.34;4962409;28;20449;-76
2021/12/18 02:43:38;;;;;;;6.40;3.88;;;;;;;1.61;56.16;94132.47;4958804;28;20015;-76
2021/12/18 02:46:08;;;;;;;7.07;4.72;;;;;;;1.51;55.78;94100.91;4959878;28;20109;-76
2021/12/18 02:48:37;;;;;;;7.00;5.32;;;;;;;1.55;55.80;94130.03;4956984;28;20059;-74
2021/12/18 02:51:05;;;;;;;11.98;5.47;;;;;;;1.41;56.02;94136.72;4962054;28;20047;-76
2021/12/18 02:53:32;;;;;;;6.75;5.28;;;;;;;1.29;56.44;94139.50;4955957;28;20043;-76
2021/12/18 02:56:01;;;;;;;7.50;4.63;;;;;;;1.25;56.81;94143.66;4963557;28;20039;-76
2021/12/18 02:58:27;;;;;;;6.18;5.22;;;;;;;1.25;56.76;94127.94;4956219;28;20023;-77
2021/12/18 03:00:56;;;;;;;9.95;5.63;;;;;;;1.53;56.54;94146.00;4958133;28;20571;-76
2021/12/18 03:03:28;;;;;;;10.27;5.93;;;;;;;1.34;56.45;94115.97;4957070;28;20042;-75
2021/12/18 03:25:11;;;;;;;7.07;4.97;;;;;;;1.02;58.84;94155.19;4961187;28;20065;-76
2021/12/18 03:27:38;;;;;;;11.13;5.80;;;;;;;1.10;58.58;94157.38;4957795;28;20070;-75
2021/12/18 03:30:05;;;;;;;8.85;5.32;;;;;;;1.09;58.17;94149.75;4959490;28;20455;-75
2021/12/18 03:32:31;;;;;;;12.25;5.65;;;;;;;1.21;58.59;94158.28;4957163;28;20065;-74
2021/12/18 03:34:56;;;;;;;11.10;5.07;;;;;;;1.28;58.93;94164.09;4958955;28;20143;-76
2021/12/18 03:37:22;;;;;;;12.70;6.35;;;;;;;1.19;59.65;94160.34;4960309;28;20161;-74
2021/12/18 03:39:49;;;;;;;13.82;5.68;;;;;;;1.11;60.05;94140.63;4956356;28;20398;-77
2021/12/18 03:42:14;;;;;;;8.13;5.10;;;;;;;1.05;60.49;94133.75;4960773;28;20047;-76
2021/12/18 03:44:40;;;;;;;11.70;5.90;;;;;;;1.25;60.59;94175.09;4958147;28;20325;-76
2021/12/18 03:47:06;;;;;;;9.82;6.22;;;;;;;1.15;61.08;94172.34;4958486;28;20046;-74
2021/12/18 03:49:33;;;;;;;12.02;6.93;;;;;;;1.05;61.10;94159.16;4958534;28;20653;-74
2021/12/18 03:51:59;;;;;;;10.13;5.95;;;;;;;1.19;61.19;94173.44;4961926;28;20516;-74
2021/12/18 03:54:24;;;;;;;11.25;6.55;;;;;;;1.23;60.99;94177.94;4958525;28;20044;-76
2021/12/18 03:56:49;;;;;;;9.82;5.22;;;;;;;1.04;60.96;94160.19;4958453;28;20101;-76
2021/12/18 03:59:15;;;;;;;10.13;5.47;;;;;;;1.16;60.63;94169.50;4957331;28;20690;-76
2021/12/18 04:01:40;;;;;;;7.88;5.00;;;;;;;1.07;60.48;94173.59;4956781;28;20085;-75
2021/12/18 04:04:06;;;;;;;8.02;5.00;;;;;;;1.11;60.62;94185.16;4960150;28;20429;-76
2021/12/18 04:06:32;;;;;;;12.55;6.05;;;;;;;1.20;60.03;94181.06;4956903;28;20093;-74
2021/12/18 04:08:58;;;;;;;10.15;5.47;;;;;;;1.02;59.78;94154.41;4958340;28;20035;-75
2021/12/18 04:11:23;;;;;;;11.20;5.90;;;;;;;1.08;59.74;94142.97;4955559;28;20040;-74
2021/12/18 04:13:49;;;;;;;10.65;5.45;;;;;;;1.38;58.84;94158.97;4957556;28;21060;-74
2021/12/18 04:16:14;;;;;;;10.80;6.35;;;;;;;1.30;58.59;94167.28;4957407;28;20437;-74
2021/12/18 04:18:40;;;;;;;6.35;4.10;;;;;;;1.22;58.47;94165.13;4959358;28;20046;-74
2021/12/18 04:21:06;;;;;;;8.13;5.32;;;;;;;0.94;58.89;94152.19;4957954;28;20057;-74
2021/12/18 04:23:32;;;;;;;9.85;5.00;;;;;;;0.92;59.15;94156.91;4961005;28;20776;-74
2021/12/18 04:25:58;;;;;;;7.75;4.93;;;;;;;0.95;59.32;94174.75;4956051;28;20177;-74
2021/12/18 04:28:24;;;;;;;10.30;5.18;;;;;;;1.08;59.53;94190.09;4961535;28;20502;-73
2021/12/18 04:30:50;;;;;;;11.90;4.95;;;;;;;0.97;59.11;94154.34;4956768;28;20395;-74
2021/12/18 04:33:16;;;;;;;8.35;5.78;;;;;;;1.13;59.28;94185.69;4960478;28;20042;-76
2021/12/18 04:35:42;;;;;;;8.30;6.55;;;;;;;1.25;59.04;94190.81;4955947;28;20512;-76
2021/12/18 04:38:08;;;;;;;10.73;5.38;;;;;;;1.28;59.42;94195.56;4959407;28;20476;-76
2021/12/18 04:40:35;;;;;;;10.80;4.35;;;;;;;1.46;59.04;94186.59;4958144;28;20045;-75
2021/12/18 04:43:01;;;;;;;12.43;6.80;;;;;;;1.58;57.86;94174.09;4958073;28;20064;-76
2021/12/18 04:45:26;;;;;;;12.63;6.70;;;;;;;1.76;57.40;94197.38;4957683;28;20125;-74
2021/12/18 04:47:52;;;;;;;14.55;6.30;;;;;;;1.78;56.90;94195.28;4956781;28;20139;-74
2021/12/18 04:50:17;;;;;;;9.45;5.68;;;;;;;1.84;56.71;94194.28;4958764;28;20035;-74
2021/12/18 04:52:43;;;;;;;14.68;7.57;;;;;;;1.62;56.79;94186.47;4956335;28;20039;-76
2021/12/18 04:55:09;;;;;;;14.18;6.82;;;;;;;1.72;57.03;94206.75;4959089;28;20033;-76
2021/12/18 04:57:34;;;;;;;11.45;6.53;;;;;;;1.39;57.00;94171.03;4955601;28;20498;-74
2021/12/18 04:59:59;;;;;;;12.07;5.68;;;;;;;1.60;57.17;94212.16;4958896;28;20043;-74
2021/12/18 05:02:36;;;;;;;7.93;4.90;;;;;;;1.67;57.19;94222.44;4956301;28;20421;-74
2021/12/18 05:05:03;;;;;;;11.43;5.85;;;;;;;1.83;56.93;94229.41;4959169;28;20046;-76
2021/12/18 05:07:28;;;;;;;12.10;4.95;;;;;;;1.63;56.61;94216.09;4956858;28;20027;-76
2021/12/18 05:09:54;;;;;;;6.47;4.35;;;;;;;1.54;56.91;94239.34;4959706;28;20050;-76
2021/12/18 05:12:19;;;;;;;11.48;4.65;;;;;;;1.28;57.30;94203.41;4956185;28;20035;-76
2021/12/18 05:14:45;;;;;;;9.68;4.65;;;;;;;1.24;58.19;94233.75;4957929;28;20039;-74
2021/12/18 05:17:10;;;;;;;7.75;5.13;;;;;;;1.26;57.95;94234.31;4957272;28;20049;-74
2021/12/18 05:19:36;;;;;;;5.78;4.10;;;;;;;1.29;58.32;94241.69;4959814;28;20034;-76
2021/12/18 05:22:02;;;;;;;8.77;4.40;;;;;;;1.29;58.37;94244.31;4957221;28;20026;-76
2021/12/18 05:24:28;;;;;;;10.57;5.40;;;;;;;1.42;58.04;94248.41;4957441;28;20037;-77
2021/12/18 05:26:53;;;;;;;6.90;3.85;;;;;;;1.39;57.37;94235.75;4957803;28;20042;-76
2021/12/18 05:29:19;;;;;;;8.95;4.88;;;;;;;1.58;57.04;94253.53;4958884;28;20521;-76
2021/12/18 05:31:45;;;;;;;10.63;5.65;;;;;;;1.40;57.04;94230.28;4956386;28;20478;-76
2021/12/18 05:34:11;;;;;;;7.53;4.72;;;;;;;1.53;56.84;94235.13;4956971;28;20034;-75
2021/12/18 05:37:11;;;;;;;10.45;5.60;;;;;;;1.55;56.90;94255.88;4957503;28;20042;-76
2021/12/18 05:39:28;;;;;;;10.68;5.13;;;;;;;1.40;56.92;94261.75;4956473;28;20050;-75
2021/12/18 05:41:55;;;;;;;10.10;5.95;;;;;;;1.36;57.26;94268.50;4959376;28;20413;-76
2021/12/18 05:44:23;;;;;;;8.48;5.43;;;;;;;1.49;57.47;94265.50;4955366;28;20329;-75
2021/12/18 05:46:49;;;;;;;8.43;4.95;;;;;;;1.48;56.91;94269.16;4957468;28;20034;-76
2021/12/18 05:49:16;;;;;;;8.77;5.50;;;;;;;1.35;57.27;94261.69;4955731;28;20563;-76
2021/12/18 05:51:43;;;;;;;9.35;5.68;;;;;;;1.02;57.48;94225.13;4958442;28;20038;-76
2021/12/18 05:54:08;;;;;;;8.07;5.72;;;;;;;1.22;57.45;94275.16;4957204;28;20426;-76
2021/12/18 05:56:34;;;;;;;9.60;6.30;;;;;;;1.13;57.75;94274.75;4957730;28;20028;-75
2021/12/18 05:59:00;;;;;;;7.75;5.18;;;;;;;1.00;58.14;94256.00;4956047;28;20471;-76
2021/12/18 06:01:26;;;;;;;9.45;5.70;;;;;;;0.80;58.62;94267.78;4958865;28;20030;-76
2021/12/18 06:03:52;;;;;;;23.25;10.05;;;;;;;0.84;58.65;94264.72;4955601;28;20038;-75
2021/12/18 06:06:18;;;;;;;12.90;7.95;;;;;;;0.72;58.87;94239.41;4942239;28;20033;-76
2021/12/18 06:08:43;;;;;;;10.93;6.85;;;;;;;1.01;58.83;94278.53;4956445;28;20031;-75
2021/12/18 06:11:15;;;;;;;22.52;13.90;;;;;;;0.93;58.79;94255.41;4957803;28;20039;-76
2021/12/18 06:13:41;;;;;;;9.80;5.75;;;;;;;0.96;58.87;94270.63;4953988;28;20039;-76
2021/12/18 06:16:07;;;;;;;15.00;8.63;;;;;;;1.09;58.90;94289.38;4958211;28;20517;-75
2021/12/18 06:18:35;;;;;;;16.10;10.80;;;;;;;0.74;59.88;94291.53;4956906;28;20046;-76
2021/12/18 06:21:00;;;;;;;13.73;8.80;;;;;;;0.72;60.25;94285.75;4954401;28;20795;-76
2021/12/18 06:23:26;;;;;;;9.60;6.55;;;;;;;0.87;60.36;94287.78;4957439;28;20537;-75
2021/12/18 06:25:51;;;;;;;7.50;5.32;;;;;;;0.78;60.60;94296.06;4939283;28;20289;-75
2021/12/18 06:28:17;;;;;;;12.55;5.57;;;;;;;0.86;60.18;94286.19;4954872;28;20481;-75
2021/12/18 06:30:42;;;;;;;13.20;6.18;;;;;;;1.02;60.28;94312.38;4951452;28;20153;-76
2021/12/18 06:33:08;;;;;;;9.90;6.15;;;;;;;1.12;60.40;94316.94;4959364;28;20297;-75
2021/12/18 06:35:33;;;;;;;8.18;5.22;;;;;;;1.21;60.04;94320.72;4954179;28;20078;-76
2021/12/18 06:37:59;;;;;;;9.68;5.53;;;;;;;1.22;59.83;94322.31;4953966;28;20097;-75
2021/12/18 06:40:24;;;;;;;8.20;5.07;;;;;;;1.20;59.83;94314.69;4957216;28;20053;-75
2021/12/18 06:42:50;;;;;;;9.95;6.53;;;;;;;1.28;59.90;94326.56;4957354;28;20101;-75
2021/12/18 06:45:15;;;;;;;8.77;5.38;;;;;;;1.02;59.84;94274.91;4955610;28;20598;-75
2021/12/18 06:47:41;;;;;;;9.10;6.47;;;;;;;1.33;59.52;94313.53;4957067;28;20134;-75
2021/12/18 06:50:07;;;;;;;11.23;5.28;;;;;;;1.37;59.16;94325.13;4957397;28;20043;-75
2021/12/18 06:52:32;;;;;;;8.02;5.30;;;;;;;1.33;59.24;94313.53;4957334;28;20015;-75
2021/12/18 06:54:58;;;;;;;8.70;5.53;;;;;;;1.44;59.12;94330.97;4939222;28;20054;-75
2021/12/18 06:57:23;;;;;;;11.20;6.13;;;;;;;1.41;59.09;94325.44;4956641;28;20609;-76
2021/12/18 06:59:50;;;;;;;8.13;5.15;;;;;;;1.35;59.46;94329.81;4937937;28;20050;-75
2021/12/18 07:02:16;;;;;;;11.18;5.53;;;;;;;1.19;59.41;94314.94;4956400;28;20063;-75
2021/12/18 07:04:42;;;;;;;8.18;5.38;;;;;;;1.43;59.21;94350.34;4957307;28;20609;-75
2021/12/18 07:07:07;;;;;;;14.23;7.22;;;;;;;1.50;59.57;94360.69;4956957;28;20560;-75
2021/12/18 07:09:33;;;;;;;9.77;7.00;;;;;;;1.62;59.09;94359.50;4953188;28;20530;-76
2021/12/18 07:11:58;;;;;;;10.07;5.47;;;;;;;1.53;58.96;94366.22;4952794;28;20057;-75
2021/12/18 07:14:23;;;;;;;11.50;6.05;;;;;;;1.36;59.23;94360.25;4950622;28;20528;-75
2021/12/18 07:16:49;;;;;;;8.95;5.20;;;;;;;1.17;59.54;94346.63;4955322;28;20034;-75
2021/12/18 07:19:14;;;;;;;9.13;5.20;;;;;;;1.34;59.34;94362.31;4956908;28;20632;-76
2021/12/18 07:21:40;;;;;;;9.52;5.10;;;;;;;1.44;59.64;94367.69;4955485;28;20387;-76
2021/12/18 07:24:05;;;;;;;7.47;5.72;;;;;;;1.36;59.32;94344.50;4956793;28;20030;-76
2021/12/18 07:26:32;;;;;;;8.82;5.13;;;;;;;1.55;59.34;94364.16;4956192;28;20031;-76
2021/12/18 07:28:58;;;;;;;11.20;5.45;;;;;;;1.49;59.16;94345.97;4953692;28;20118;-76
2021/12/18 07:31:24;;;;;;;12.65;4.68;;;;;;;1.60;58.87;94366.84;4954540;28;20408;-75
2021/12/18 07:33:49;;;;;;;10.73;6.45;;;;;;;1.62;59.28;94364.75;4956037;28;20027;-75
2021/12/18 07:36:15;;;;;;;8.35;4.82;;;;;;;1.83;58.55;94372.88;4956684;28;20425;-76
2021/12/18 07:38:41;;;;;;;8.98;5.10;;;;;;;1.81;58.27;94351.34;4956898;28;20714;-76
2021/12/18 07:41:07;;;;;;;8.35;4.28;;;;;;;2.03;57.22;94352.94;4955445;28;20047;-76
2021/12/18 07:43:32;;;;;;;7.20;3.95;;;;;;;1.97;56.73;94355.75;4957704;28;20034;-75
2021/12/18 07:45:58;;;;;;;8.05;4.13;;;;;;;1.91;56.75;94385.59;4956963;28;20033;-76
2021/12/18 07:48:23;;;;;;;14.15;8.90;;;;;;;1.95;56.66;94384.06;4954482;28;20065;-75
2021/12/18 07:50:49;;;;;;;9.60;5.13;;;;;;;1.85;56.87;94379.47;4955116;28;20038;-76
2021/12/18 07:53:16;;;;;;;10.65;7.30;;;;;;;1.69;56.89;94359.34;4956529;28;20051;-75
2021/12/18 07:55:42;;;;;;;9.07;5.80;;;;;;;1.81;56.81;94369.72;4956229;28;20490;-76
2021/12/18 07:58:07;;;;;;;10.10;6.60;;;;;;;1.82;57.05;94369.44;4961237;28;20022;-75
2021/12/18 08:00:32;;;;;;;19.75;9.30;;;;;;;1.91;56.82;94390.84;4959831;28;20152;-75
2021/12/18 08:02:58;;;;;;;17.52;8.63;;;;;;;1.96;56.57;94404.78;4960062;28;20407;-76
2021/12/18 08:05:23;;;;;;;9.80;6.40;;;;;;;1.81;57.07;94377.59;4959492;28;21011;-75
2021/12/18 08:07:49;;;;;;;9.02;5.50;;;;;;;1.96;56.58;94417.91;4962197;28;20477;-75
2021/12/18 08:10:15;;;;;;;11.02;6.13;;;;;;;1.98;56.18;94405.34;4958379;28;20023;-76
2021/12/18 08:12:41;;;;;;;8.00;4.70;;;;;;;2.02;55.73;94424.81;4962857;28;20122;-75
2021/12/18 08:15:07;;;;;;;11.13;7.65;;;;;;;1.94;55.89;94409.50;4958629;28;20050;-75
2021/12/18 08:17:33;;;;;;;10.48;7.38;;;;;;;1.69;56.19;94411.78;4958812;28;20042;-75
2021/12/18 08:19:58;;;;;;;9.70;5.75;;;;;;;1.49;56.51;94391.34;4958720;28;20053;-76
2021/12/18 08:22:24;;;;;;;12.98;8.98;;;;;;;1.57;56.93;94426.84;4961172;28;21813;-76
2021/12/18 08:24:49;;;;;;;16.80;10.50;;;;;;;1.48;56.94;94399.44;4959815;28;20915;-76
2021/12/18 08:27:15;;;;;;;13.25;9.50;;;;;;;1.91;56.71;94424.94;4958800;28;20383;-76
2021/12/18 08:29:40;;;;;;;14.88;9.77;;;;;;;1.95;56.03;94426.03;4960742;28;22084;-75
2021/12/18 08:32:06;;;;;;;11.43;6.10;;;;;;;2.01;55.51;94417.97;4960712;28;21210;-75
2021/12/18 08:34:32;;;;;;;9.75;7.75;;;;;;;2.16;55.27;94429.72;4959349;28;20085;-75
2021/12/18 08:36:57;;;;;;;9.77;6.13;;;;;;;1.97;55.71;94414.25;4961005;28;20477;-76
2021/12/18 08:39:23;;;;;;;7.55;6.07;;;;;;;2.10;55.48;94413.09;4960332;28;20049;-76
2021/12/18 08:41:48;;;;;;;12.55;7.35;;;;;;;2.44;55.01;94440.78;4960838;28;20066;-75
2021/12/18 08:44:14;;;;;;;9.90;6.78;;;;;;;2.42;55.00;94416.59;4958798;28;20086;-74
2021/12/18 08:46:40;;;;;;;9.77;5.68;;;;;;;2.47;54.73;94419.28;4957009;28;20077;-75
2021/12/18 08:49:05;;;;;;;11.90;6.72;;;;;;;2.59;54.64;94415.72;4957919;28;20037;-76
2021/12/18 08:51:32;;;;;;;9.07;5.38;;;;;;;2.42;54.17;94410.53;4956903;28;20045;-76
2021/12/18 08:53:58;;;;;;;10.73;5.03;;;;;;;2.51;54.08;94422.97;4956740;28;20039;-76
2021/12/18 08:56:23;;;;;;;12.65;5.43;;;;;;;2.57;53.66;94423.03;4958099;28;20054;-75
2021/12/18 08:58:50;;;;;;;9.30;5.93;;;;;;;2.48;53.89;94426.13;4960081;28;20109;-75
2021/12/18 09:01:17;;;;;;;9.80;6.30;;;;;;;2.32;54.17;94411.25;4956682;28;20030;-75
2021/12/18 09:03:43;;;;;;;10.20;6.25;;;;;;;2.28;54.55;94402.28;4960251;28;20038;-75
2021/12/18 09:06:09;;;;;;;11.80;5.88;;;;;;;2.57;54.03;94433.53;4959776;28;20498;-75
2021/12/18 09:08:34;;;;;;;14.68;6.28;;;;;;;2.48;53.97;94410.34;4956406;28;20142;-75
2021/12/18 09:11:00;;;;;;;10.93;5.38;;;;;;;2.57;53.99;94423.81;4958586;28;20189;-75
2021/12/18 09:13:25;;;;;;;10.23;6.05;;;;;;;2.44;54.32;94406.66;4961948;28;20485;-77
2021/12/18 09:15:51;;;;;;;10.57;5.97;;;;;;;2.59;54.33;94403.38;4956893;28;20480;-76
2021/12/18 09:18:16;;;;;;;7.47;4.50;;;;;;;2.82;53.02;94425.91;4960030;28;20071;-75
2021/12/18 09:20:44;;;;;;;9.45;5.65;;;;;;;2.70;53.36;94423.41;4960218;28;20557;-74
2021/12/18 09:23:10;;;;;;;10.98;5.95;;;;;;;2.73;54.04;94422.94;4956533;28;20050;-75
2021/12/18 09:25:37;;;;;;;7.72;4.63;;;;;;;2.67;53.99;94417.88;4961721;28;20030;-74
2021/12/18 09:28:03;;;;;;;10.23;5.32;;;;;;;2.59;54.24;94410.47;4957859;28;20029;-74
2021/12/18 09:30:29;;;;;;;8.60;4.47;;;;;;;2.57;54.04;94394.16;4959670;28;20145;-74
2021/12/18 09:32:55;;;;;;;12.18;5.40;;;;;;;2.50;54.70;94392.50;4963538;28;20035;-75
2021/12/18 09:35:21;;;;;;;10.35;5.22;;;;;;;2.59;54.61;94413.09;4958653;28;20329;-76
2021/12/18 09:37:47;;;;;;;10.20;6.20;;;;;;;2.61;54.32;94419.66;4959879;28;20046;-76
2021/12/18 09:40:13;;;;;;;9.27;5.28;;;;;;;2.29;54.52;94384.69;4943749;28;20055;-75
2021/12/18 09:42:41;;;;;;;10.05;5.88;;;;;;;2.37;55.14;94413.91;4961128;28;20090;-75
2021/12/18 09:45:07;;;;;;;13.02;6.13;;;;;;;2.41;55.15;94416.81;4960448;28;20089;-75
2021/12/18 09:47:33;;;;;;;7.18;5.47;;;;;;;2.26;55.88;94412.22;4956871;28;20446;-75
2021/12/18 09:50:00;;;;;;;9.90;5.57;;;;;;;2.31;55.91;94414.91;4959110;28;20039;-75
2021/12/18 09:52:25;;;;;;;11.73;4.78;;;;;;;2.17;55.72;94395.31;4956332;28;20121;-75
2021/12/18 09:54:58;;;;;;;6.85;4.50;;;;;;;2.38;55.50;94415.50;4954741;28;20042;-75
2021/12/18 09:57:24;;;;;;;9.20;4.85;;;;;;;2.52;55.44;94419.31;4958803;28;20065;-76
2021/12/18 09:59:50;;;;;;;13.07;5.90;;;;;;;2.54;55.56;94416.47;4958357;28;20388;-77
2021/12/18 10:02:15;;;;;;;12.07;6.38;;;;;;;2.64;55.17;94407.88;4950486;28;20099;-75
2021/12/18 10:04:41;;;;;;;6.45;4.93;;;;;;;2.59;54.58;94402.59;4957937;28;20469;-74
2021/12/18 10:07:21;;;;;;;10.77;6.13;;;;;;;2.61;54.74;94400.47;4954009;28;20058;-75
2021/12/18 10:09:48;;;;;;;9.75;5.63;;;;;;;2.81;54.48;94398.03;4956974;28;20480;-77
2021/12/18 10:12:23;;;;;;;8.23;4.93;;;;;;;2.99;54.07;94405.53;4956469;28;20046;-75
2021/12/18 10:14:55;;;;;;;9.52;6.03;;;;;;;2.81;53.68;94361.25;4939750;28;20042;-76
2021/12/18 10:17:26;;;;;;;10.02;6.43;;;;;;;3.01;53.98;94398.19;4958664;28;20506;-76
2021/12/18 10:19:55;;;;;;;10.77;6.10;;;;;;;2.97;53.99;94397.13;4935646;28;20026;-75
2021/12/18 10:22:20;;;;;;;8.65;5.10;;;;;;;2.81;53.73;94377.03;4957925;28;20380;-75
2021/12/18 10:25:01;;;;;;;12.48;6.97;;;;;;;2.96;53.90;94395.53;4957191;28;20533;-76
2021/12/18 10:27:26;;;;;;;9.57;6.35;;;;;;;2.78;53.53;94374.91;4959103;28;20039;-76
2021/12/18 10:30:06;;;;;;;8.95;6.70;;;;;;;2.91;53.18;94388.41;4955871;28;20371;-76
2021/12/18 10:32:32;;;;;;;9.15;5.95;;;;;;;2.81;52.51;94385.69;4955123;28;20086;-75
2021/12/18 10:34:59;;;;;;;8.63;5.40;;;;;;;2.72;53.11;94387.19;4953744;28;20066;-76
2021/12/18 10:37:27;;;;;;;9.25;6.35;;;;;;;2.85;52.85;94383.34;4957998;28;20042;-76
2021/12/18 10:39:56;;;;;;;8.50;5.15;;;;;;;2.94;52.55;94389.72;4958559;28;20073;-76
2021/12/18 10:42:34;;;;;;;15.15;8.38;;;;;;;3.01;52.22;94385.06;4957326;28;20038;-77
2021/12/18 10:45:22;;;;;;;9.85;6.55;;;;;;;3.00;52.79;94385.31;4957282;28;20038;-76
2021/12/18 10:47:53;;;;;;;6.28;3.75;;;;;;;2.86;51.67;94384.94;4939623;28;20482;-76
2021/12/18 10:50:26;;;;;;;4.40;3.65;;;;;;;2.45;52.23;94347.81;4958224;28;20133;-77
2021/12/18 10:53:08;;;;;;;5.63;3.45;;;;;;;2.08;52.99;94354.81;4956508;28;20413;-77
2021/12/18 10:55:36;;;;;;;8.10;3.85;;;;;;;2.34;53.53;94371.63;4956871;28;20022;-77
2021/12/18 10:58:04;;;;;;;8.15;3.53;;;;;;;2.47;52.87;94360.72;4937425;28;20399;-76
2021/12/18 11:00:35;;;;;;;6.57;4.20;;;;;;;2.61;52.95;94368.97;4956432;28;20130;-77
2021/12/18 11:03:13;;;;;;;6.68;4.70;;;;;;;2.82;52.90;94363.66;4954817;28;20043;-78
2021/12/18 11:05:39;;;;;;;5.65;3.90;;;;;;;2.86;53.39;94337.66;4955895;28;20035;-77
2021/12/18 11:08:09;;;;;;;8.20;4.68;;;;;;;2.98;52.47;94343.53;4957166;28;20054;-77
2021/12/18 11:10:55;;;;;;;6.30;4.15;;;;;;;2.09;53.49;94353.78;4950486;28;20089;-78
2021/12/18 11:13:41;;;;;;;6.13;3.88;;;;;;;2.37;52.20;94345.66;4952739;28;20110;-78
2021/12/18 11:16:06;;;;;;;9.80;4.25;;;;;;;2.87;52.21;94361.06;4953830;28;20105;-77
2021/12/18 11:18:33;;;;;;;9.77;4.72;;;;;;;3.40;51.11;94369.81;4955335;28;20035;-78
2021/12/18 11:20:59;;;;;;;9.27;5.53;;;;;;;3.57;50.96;94343.34;4954394;28;20075;-77
2021/12/18 11:23:48;;;;;;;16.38;9.38;;;;;;;3.76;50.16;94340.00;4951157;28;20042;-77
2021/12/18 11:26:14;;;;;;;20.00;10.40;;;;;;;4.19;49.28;94362.53;4955766;28;20634;-77
2021/12/18 11:28:43;;;;;;;8.77;4.70;;;;;;;3.90;48.40;94357.94;4940071;28;20027;-78
2021/12/18 11:31:09;;;;;;;10.13;4.60;;;;;;;3.92;47.59;94369.00;4955370;28;20030;-79
2021/12/18 11:33:35;;;;;;;8.30;4.80;;;;;;;3.21;49.67;94361.56;4952321;28;20493;-78
2021/12/18 11:36:03;;;;;;;10.20;5.18;;;;;;;3.62;50.28;94356.53;4956572;28;20168;-78
2021/12/18 11:38:30;;;;;;;6.78;4.05;;;;;;;3.70;49.07;94322.63;4939041;28;20498;-78
2021/12/18 11:40:56;;;;;;;8.55;4.97;;;;;;;3.76;48.75;94352.38;4950609;28;20103;-77
2021/12/18 11:43:31;;;;;;;6.32;3.97;;;;;;;3.36;49.96;94374.00;4938995;28;20031;-78
2021/12/18 11:45:57;;;;;;;6.28;4.35;;;;;;;2.65;50.60;94362.16;4956267;28;20043;-77
2021/12/18 11:48:22;;;;;;;9.40;6.10;;;;;;;3.40;50.52;94352.19;4953290;28;20042;-78
2021/12/18 11:50:48;;;;;;;9.68;5.13;;;;;;;3.87;49.21;94353.97;4951075;28;20157;-76
2021/12/18 11:53:19;;;;;;;8.20;4.90;;;;;;;3.70;48.60;94348.13;4951990;28;20119;-78
2021/12/18 11:55:51;;;;;;;5.30;4.07;;;;;;;3.35;48.42;94367.94;4952572;28;20125;-77
2021/12/18 11:58:19;;;;;;;3.20;2.58;;;;;;;3.64;48.11;94363.09;4948483;28;20081;-78
2021/12/18 12:00:51;;;;;;;9.15;4.90;;;;;;;3.40;47.81;94375.06;4946857;28;20038;-78
2021/12/18 12:03:39;;;;;;;3.75;3.25;;;;;;;2.75;49.31;94372.75;4948772;28;20042;-77
2021/12/18 12:06:33;;;;;;;5.80;3.28;;;;;;;2.88;49.46;94367.09;4940362;28;20038;-78
2021/12/18 12:09:20;;;;;;;5.53;3.47;;;;;;;3.21;48.48;94366.81;4946815;28;20046;-78
2021/12/18 12:11:58;;;;;;;5.07;3.30;;;;;;;2.47;49.79;94358.09;4947007;28;20152;-77
2021/12/18 12:14:28;;;;;;;5.82;2.60;;;;;;;2.82;48.30;94363.66;4953487;28;20666;-77
2021/12/18 12:16:54;;;;;;;7.15;4.10;;;;;;;2.78;48.85;94359.16;4952997;28;20070;-77
2021/12/18 12:19:37;;;;;;;6.30;3.10;;;;;;;3.06;49.56;94353.56;4953906;28;20034;-78
2021/12/18 12:22:05;;;;;;;5.25;2.88;;;;;;;3.20;50.18;94375.72;4953986;28;20132;-78
2021/12/18 12:24:51;;;;;;;3.20;2.45;;;;;;;2.61;51.71;94340.88;4945854;28;20039;-76
2021/12/18 12:27:34;;;;;;;3.55;2.80;;;;;;;2.69;52.43;94358.81;4955954;28;20047;-79
2021/12/18 12:30:03;;;;;;;5.10;3.72;;;;;;;2.58;53.20;94348.47;4954837;28;20035;-77